Terminal Aerodrome Forecast
Issued by NWS Dallas/Fort Worth, TX

Home | Current Version | Previous Version | Text Only | Print | Product List | Glossary On
Versions: 1 2 3 4 5 6 7 8 9 10 11 12 13 14 15 16 17 18 19 20 21 22 23 24 25 26 27 28 29 30 31 32
000
FTUS44 KFWD 300312 AAA
TAFACT
TAF AMD
KACT 300312Z 3003/3024 19006KT P6SM SCT035
     FM300600 15010KT P6SM VCTS OVC015CB
     FM301000 VRB04KT 5SM -TSRA OVC009CB
     FM301600 36006KT P6SM BKN050 OVC100=

USA.gov is the U.S. government's official web portal to all federal, state and local government web resources and services.